sensor_id;sensor_type;location;lat;lon;timestamp;pressure;altitude;pressure_sealevel;temperature;humidity
71567;BME280;59403;47.456;19.120;2023-08-30T00:02:18;99064.19;;;18.22;100.00
71567;BME280;59403;47.456;19.120;2023-08-30T00:04:47;99055.78;;;18.18;100.00
71567;BME280;59403;47.456;19.120;2023-08-30T00:07:14;99061.16;;;18.18;100.00
71567;BME280;59403;47.456;19.120;2023-08-30T00:09:41;99067.47;;;18.12;100.00
71567;BME280;59403;47.456;19.120;2023-08-30T00:12:08;99069.47;;;18.05;100.00
71567;BME280;59403;47.456;19.120;2023-08-30T00:14:36;99077.88;;;18.08;100.00
71567;BME280;59403;47.456;19.120;2023-08-30T00:17:03;99074.34;;;18.08;100.00
71567;BME280;59403;47.456;19.120;2023-08-30T00:19:30;99084.75;;;18.04;100.00
71567;BME280;59403;47.456;19.120;2023-08-30T00:21:58;99081.00;;;18.05;100.00
71567;BME280;59403;47.456;19.120;2023-08-30T00:24:25;99083.91;;;18.04;100.00
71567;BME280;59403;47.456;19.120;2023-08-30T00:26:52;99083.56;;;18.00;100.00
71567;BME280;59403;47.456;19.120;2023-08-30T00:29:19;99088.94;;;18.00;100.00
71567;BME280;59403;47.456;19.120;2023-08-30T00:31:46;99089.16;;;17.99;100.00
71567;BME280;59403;47.456;19.120;2023-08-30T00:34:13;99088.34;;;17.98;100.00
71567;BME280;59403;47.456;19.120;2023-08-30T00:36:40;99084.19;;;17.91;100.00
71567;BME280;59403;47.456;19.120;2023-08-30T00:39:08;99082.53;;;17.90;100.00
71567;BME280;59403;47.456;19.120;2023-08-30T00:41:35;99078.84;;;17.91;100.00
71567;BME280;59403;47.456;19.120;2023-08-30T00:44:02;99099.44;;;17.90;100.00
71567;BME280;59403;47.456;19.120;2023-08-30T00:46:29;99095.94;;;17.90;100.00
71567;BME280;59403;47.456;19.120;2023-08-30T00:48:57;99104.44;;;17.87;100.00
71567;BME280;59403;47.456;19.120;2023-08-30T00:51:24;99108.41;;;17.84;100.00
71567;BME280;59403;47.456;19.120;2023-08-30T00:53:52;99111.56;;;17.81;100.00
71567;BME280;59403;47.456;19.120;2023-08-30T00:56:22;99111.78;;;17.80;100.00
71567;BME280;59403;47.456;19.120;2023-08-30T00:58:49;99116.81;;;17.76;100.00
71567;BME280;59403;47.456;19.120;2023-08-30T01:04:30;99110.16;;;17.67;100.00
71567;BME280;59403;47.456;19.120;2023-08-30T01:06:58;99105.88;;;17.66;100.00
71567;BME280;59403;47.456;19.120;2023-08-30T01:09:25;99111.13;;;17.61;100.00
71567;BME280;59403;47.456;19.120;2023-08-30T01:12:07;99097.12;;;17.59;100.00
71567;BME280;59403;47.456;19.120;2023-08-30T01:14:40;99109.47;;;17.60;100.00
71567;BME280;59403;47.456;19.120;2023-08-30T01:17:11;99107.75;;;17.54;100.00
71567;BME280;59403;47.456;19.120;2023-08-30T01:19:47;99103.22;;;17.55;100.00
71567;BME280;59403;47.456;19.120;2023-08-30T01:22:19;99100.75;;;17.53;100.00
71567;BME280;59403;47.456;19.120;2023-08-30T01:24:58;99098.53;;;17.50;100.00
71567;BME280;59403;47.456;19.120;2023-08-30T01:27:31;99093.28;;;17.44;100.00
71567;BME280;59403;47.456;19.120;2023-08-30T01:30:01;99094.87;;;17.45;100.00
71567;BME280;59403;47.456;19.120;2023-08-30T01:32:29;99090.84;;;17.42;100.00
71567;BME280;59403;47.456;19.120;2023-08-30T01:34:57;99091.28;;;17.39;100.00
71567;BME280;59403;47.456;19.120;2023-08-30T01:37:25;99098.88;;;17.42;100.00
71567;BME280;59403;47.456;19.120;2023-08-30T01:39:54;99098.50;;;17.39;100.00
71567;BME280;59403;47.456;19.120;2023-08-30T01:42:22;99101.19;;;17.39;100.00
71567;BME280;59403;47.456;19.120;2023-08-30T01:44:51;99095.84;;;17.39;100.00
71567;BME280;59403;47.456;19.120;2023-08-30T01:47:21;99093.41;;;17.37;100.00
71567;BME280;59403;47.456;19.120;2023-08-30T01:49:49;99095.13;;;17.32;100.00
71567;BME280;59403;47.456;19.120;2023-08-30T01:52:16;99098.72;;;17.26;100.00
71567;BME280;59403;47.456;19.120;2023-08-30T01:54:45;99105.72;;;17.27;100.00
71567;BME280;59403;47.456;19.120;2023-08-30T01:57:12;99111.06;;;17.27;100.00
71567;BME280;59403;47.456;19.120;2023-08-30T01:59:39;99110.25;;;17.26;100.00
71567;BME280;59403;47.456;19.120;2023-08-30T02:02:08;99105.47;;;17.28;100.00
71567;BME280;59403;47.456;19.120;2023-08-30T02:04:34;99097.22;;;17.30;100.00
71567;BME280;59403;47.456;19.120;2023-08-30T02:07:03;99102.91;;;17.33;100.00
71567;BME280;59403;47.456;19.120;2023-08-30T02:09:37;99109.41;;;17.26;100.00
71567;BME280;59403;47.456;19.120;2023-08-30T02:12:12;99104.88;;;17.15;100.00
71567;BME280;59403;47.456;19.120;2023-08-30T02:14:41;99108.84;;;17.24;100.00
71567;BME280;59403;47.456;19.120;2023-08-30T02:17:14;99114.66;;;17.21;100.00
71567;BME280;59403;47.456;19.120;2023-08-30T02:19:41;99111.75;;;17.22;100.00
71567;BME280;59403;47.456;19.120;2023-08-30T02:22:09;99112.91;;;17.26;100.00
71567;BME280;59403;47.456;19.120;2023-08-30T02:24:36;99109.41;;;17.26;100.00
71567;BME280;59403;47.456;19.120;2023-08-30T02:27:03;99116.06;;;17.23;100.00
71567;BME280;59403;47.456;19.120;2023-08-30T02:29:30;99117.22;;;17.16;100.00
71567;BME280;59403;47.456;19.120;2023-08-30T02:31:57;99120.00;;;17.09;100.00
71567;BME280;59403;47.456;19.120;2023-08-30T02:34:25;99122.09;;;17.19;100.00
71567;BME280;59403;47.456;19.120;2023-08-30T02:36:52;99117.22;;;17.16;100.00
71567;BME280;59403;47.456;19.120;2023-08-30T02:39:19;99120.12;;;17.14;100.00
71567;BME280;59403;47.456;19.120;2023-08-30T02:41:45;99120.34;;;17.13;100.00
71567;BME280;59403;47.456;19.120;2023-08-30T02:44:12;99114.41;;;17.11;100.00
71567;BME280;59403;47.456;19.120;2023-08-30T02:46:39;99122.91;;;17.08;100.00
71567;BME280;59403;47.456;19.120;2023-08-30T02:49:07;99128.25;;;17.08;100.00
71567;BME280;59403;47.456;19.120;2023-08-30T02:51:36;99127.78;;;16.99;100.00
71567;BME280;59403;47.456;19.120;2023-08-30T02:54:03;99128.22;;;16.96;100.00
71567;BME280;59403;47.456;19.120;2023-08-30T02:56:32;99130.81;;;17.02;100.00
71567;BME280;59403;47.456;19.120;2023-08-30T02:58:59;99129.63;;;16.98;100.00
71567;BME280;59403;47.456;19.120;2023-08-30T03:01:26;99125.66;;;17.01;100.00
71567;BME280;59403;47.456;19.120;2023-08-30T03:03:53;99112.75;;;16.98;100.00
71567;BME280;59403;47.456;19.120;2023-08-30T03:06:20;99114.16;;;17.00;100.00
71567;BME280;59403;47.456;19.120;2023-08-30T03:08:48;99116.47;;;16.97;100.00
71567;BME280;59403;47.456;19.120;2023-08-30T03:11:15;99120.88;;;16.91;100.00
71567;BME280;59403;47.456;19.120;2023-08-30T03:13:42;99118.22;;;16.91;100.00
71567;BME280;59403;47.456;19.120;2023-08-30T03:16:10;99117.03;;;16.87;100.00
71567;BME280;59403;47.456;19.120;2023-08-30T03:18:38;99117.25;;;16.86;100.00
71567;BME280;59403;47.456;19.120;2023-08-30T03:21:05;99118.06;;;16.86;100.00
71567;BME280;59403;47.456;19.120;2023-08-30T03:23:32;99116.66;;;16.84;100.00
71567;BME280;59403;47.456;19.120;2023-08-30T03:26:08;99117.34;;;16.79;100.00
71567;BME280;59403;47.456;19.120;2023-08-30T03:28:35;99119.81;;;16.81;100.00
71567;BME280;59403;47.456;19.120;2023-08-30T03:31:02;99120.25;;;16.78;100.00
71567;BME280;59403;47.456;19.120;2023-08-30T03:33:36;99124.78;;;16.77;100.00
71567;BME280;59403;47.456;19.120;2023-08-30T03:36:04;99118.25;;;16.73;100.00
71567;BME280;59403;47.456;19.120;2023-08-30T03:38:30;99117.13;;;16.81;100.00
71567;BME280;59403;47.456;19.120;2023-08-30T03:40:57;99118.53;;;16.83;100.00
71567;BME280;59403;47.456;19.120;2023-08-30T03:43:26;99114.81;;;16.84;100.00
71567;BME280;59403;47.456;19.120;2023-08-30T03:45:52;99122.25;;;16.82;100.00
71567;BME280;59403;47.456;19.120;2023-08-30T03:48:19;99119.56;;;16.82;100.00
71567;BME280;59403;47.456;19.120;2023-08-30T03:50:46;99132.13;;;16.82;100.00
71567;BME280;59403;47.456;19.120;2023-08-30T03:53:13;99132.13;;;16.82;100.00
71567;BME280;59403;47.456;19.120;2023-08-30T03:55:40;99136.91;;;16.80;100.00
71567;BME280;59403;47.456;19.120;2023-08-30T03:58:07;99140.84;;;16.77;100.00
71567;BME280;59403;47.456;19.120;2023-08-30T04:00:37;99137.78;;;16.74;100.00
71567;BME280;59403;47.456;19.120;2023-08-30T04:03:05;99149.78;;;16.71;100.00
71567;BME280;59403;47.456;19.120;2023-08-30T04:05:32;99151.41;;;16.72;100.00
71567;BME280;59403;47.456;19.120;2023-08-30T04:08:00;99150.78;;;16.70;100.00
71567;BME280;59403;47.456;19.120;2023-08-30T04:10:27;99146.50;;;16.69;100.00
71567;BME280;59403;47.456;19.120;2023-08-30T04:12:54;99153.25;;;16.72;100.00
71567;BME280;59403;47.456;19.120;2023-08-30T04:15:21;99150.56;;;16.72;100.00
71567;BME280;59403;47.456;19.120;2023-08-30T04:17:49;99152.00;;;16.74;100.00
71567;BME280;59403;47.456;19.120;2023-08-30T04:20:16;99149.91;;;16.76;100.00
71567;BME280;59403;47.456;19.120;2023-08-30T04:22:43;99157.69;;;16.78;100.00
71567;BME280;59403;47.456;19.120;2023-08-30T04:25:10;99162.94;;;16.84;100.00
71567;BME280;59403;47.456;19.120;2023-08-30T04:27:36;99157.59;;;16.84;100.00
71567;BME280;59403;47.456;19.120;2023-08-30T04:30:04;99157.97;;;16.88;100.00
71567;BME280;59403;47.456;19.120;2023-08-30T04:32:31;99176.53;;;16.83;100.00
71567;BME280;59403;47.456;19.120;2023-08-30T04:34:59;99165.28;;;16.92;100.00
71567;BME280;59403;47.456;19.120;2023-08-30T04:37:29;99177.41;;;16.95;100.00
71567;BME280;59403;47.456;19.120;2023-08-30T04:39:56;99180.09;;;16.95;100.00
71567;BME280;59403;47.456;19.120;2023-08-30T04:42:23;99179.84;;;16.96;100.00
71567;BME280;59403;47.456;19.120;2023-08-30T04:44:50;99174.50;;;16.96;100.00
71567;BME280;59403;47.456;19.120;2023-08-30T04:47:20;99180.34;;;17.05;100.00
71567;BME280;59403;47.456;19.120;2023-08-30T04:49:50;99178.03;;;17.09;100.00
71567;BME280;59403;47.456;19.120;2023-08-30T04:52:18;99167.31;;;17.09;100.00
71567;BME280;59403;47.456;19.120;2023-08-30T04:54:46;99175.00;;;17.17;100.00
71567;BME280;59403;47.456;19.120;2023-08-30T04:57:14;99176.78;;;17.23;100.00
71567;BME280;59403;47.456;19.120;2023-08-30T04:59:41;99176.91;;;17.16;100.00
71567;BME280;59403;47.456;19.120;2023-08-30T05:02:08;99177.63;;;17.23;100.00
71567;BME280;59403;47.456;19.120;2023-08-30T05:04:36;99173.22;;;17.29;100.00
71567;BME280;59403;47.456;19.120;2023-08-30T05:07:03;99179.22;;;17.24;100.00
71567;BME280;59403;47.456;19.120;2023-08-30T05:09:31;99178.56;;;17.29;100.00
71567;BME280;59403;47.456;19.120;2023-08-30T05:11:58;99187.97;;;17.31;100.00
71567;BME280;59403;47.456;19.120;2023-08-30T05:14:25;99181.00;;;17.30;100.00
71567;BME280;59403;47.456;19.120;2023-08-30T05:16:52;99181.28;;;17.11;100.00
71567;BME280;59403;47.456;19.120;2023-08-30T05:19:19;99168.03;;;17.16;100.00
71567;BME280;59403;47.456;19.120;2023-08-30T05:21:46;99169.00;;;17.21;100.00
71567;BME280;59403;47.456;19.120;2023-08-30T05:24:16;99170.19;;;17.25;100.00
71567;BME280;59403;47.456;19.120;2023-08-30T05:26:45;99170.53;;;17.29;100.00
71567;BME280;59403;47.456;19.120;2023-08-30T05:29:12;99178.09;;;17.32;100.00
71567;BME280;59403;47.456;19.120;2023-08-30T05:31:39;99184.63;;;17.36;100.00
71567;BME280;59403;47.456;19.120;2023-08-30T05:34:06;99186.13;;;17.43;100.00
71567;BME280;59403;47.456;19.120;2023-08-30T05:36:33;99198.94;;;17.41;100.00
71567;BME280;59403;47.456;19.120;2023-08-30T05:39:00;99200.50;;;17.49;100.00
71567;BME280;59403;47.456;19.120;2023-08-30T05:41:28;99205.06;;;17.60;100.00
71567;BME280;59403;47.456;19.120;2023-08-30T05:43:57;99210.66;;;17.70;100.00
71567;BME280;59403;47.456;19.120;2023-08-30T05:46:24;99204.84;;;17.73;100.00
71567;BME280;59403;47.456;19.120;2023-08-30T05:48:51;99202.75;;;17.98;100.00
71567;BME280;59403;47.456;19.120;2023-08-30T05:51:19;99208.22;;;17.91;100.00
71567;BME280;59403;47.456;19.120;2023-08-30T05:53:46;99207.84;;;17.88;100.00
71567;BME280;59403;47.456;19.120;2023-08-30T05:56:13;99207.28;;;17.97;100.00
71567;BME280;59403;47.456;19.120;2023-08-30T05:58:40;99200.03;;;18.21;100.00
71567;BME280;59403;47.456;19.120;2023-08-30T06:01:08;99201.56;;;18.40;100.00
71567;BME280;59403;47.456;19.120;2023-08-30T06:03:35;99198.63;;;18.30;100.00
71567;BME280;59403;47.456;19.120;2023-08-30T06:06:02;99204.81;;;18.31;100.00
71567;BME280;59403;47.456;19.120;2023-08-30T06:08:29;99208.03;;;18.56;100.00
71567;BME280;59403;47.456;19.120;2023-08-30T06:10:56;99207.00;;;18.57;100.00
71567;BME280;59403;47.456;19.120;2023-08-30T06:13:22;99218.13;;;18.88;100.00
71567;BME280;59403;47.456;19.120;2023-08-30T06:15:50;99214.69;;;18.93;100.00
71567;BME280;59403;47.456;19.120;2023-08-30T06:18:19;99210.69;;;19.07;100.00
71567;BME280;59403;47.456;19.120;2023-08-30T06:20:46;99219.09;;;19.27;100.00
71567;BME280;59403;47.456;19.120;2023-08-30T06:23:27;99211.41;;;19.31;100.00
71567;BME280;59403;47.456;19.120;2023-08-30T06:25:54;99214.94;;;19.19;100.00
71567;BME280;59403;47.456;19.120;2023-08-30T06:28:21;99206.66;;;19.21;100.00
71567;BME280;59403;47.456;19.120;2023-08-30T06:30:48;99210.53;;;19.42;100.00
71567;BME280;59403;47.456;19.120;2023-08-30T06:33:15;99216.22;;;19.45;100.00
71567;BME280;59403;47.456;19.120;2023-08-30T06:35:42;99219.44;;;19.31;100.00
71567;BME280;59403;47.456;19.120;2023-08-30T06:38:09;99227.62;;;19.24;100.00
71567;BME280;59403;47.456;19.120;2023-08-30T06:40:43;99228.47;;;19.24;100.00
71567;BME280;59403;47.456;19.120;2023-08-30T06:43:10;99219.81;;;19.22;100.00
71567;BME280;59403;47.456;19.120;2023-08-30T06:45:37;99224.16;;;18.95;100.00
71567;BME280;59403;47.456;19.120;2023-08-30T06:48:05;99213.78;;;18.87;100.00
71567;BME280;59403;47.456;19.120;2023-08-30T06:50:32;99207.38;;;18.88;100.00
71567;BME280;59403;47.456;19.120;2023-08-30T06:52:59;99201.44;;;18.86;100.00
71567;BME280;59403;47.456;19.120;2023-08-30T06:55:26;99210.75;;;18.95;100.00
71567;BME280;59403;47.456;19.120;2023-08-30T06:57:55;99218.50;;;19.08;100.00
71567;BME280;59403;47.456;19.120;2023-08-30T07:00:22;99218.22;;;19.21;100.00
71567;BME280;59403;47.456;19.120;2023-08-30T07:02:49;99222.34;;;19.29;100.00
71567;BME280;59403;47.456;19.120;2023-08-30T07:05:16;99225.16;;;19.34;100.00
71567;BME280;59403;47.456;19.120;2023-08-30T07:07:43;99223.78;;;19.20;100.00
71567;BME280;59403;47.456;19.120;2023-08-30T07:10:09;99217.91;;;19.06;100.00
71567;BME280;59403;47.456;19.120;2023-08-30T07:12:36;99221.84;;;19.15;100.00
71567;BME280;59403;47.456;19.120;2023-08-30T07:15:05;99220.66;;;19.23;100.00
71567;BME280;59403;47.456;19.120;2023-08-30T07:17:33;99225.66;;;19.31;100.00
71567;BME280;59403;47.456;19.120;2023-08-30T07:20:00;99220.88;;;19.50;100.00
71567;BME280;59403;47.456;19.120;2023-08-30T07:22:28;99221.88;;;19.32;100.00
71567;BME280;59403;47.456;19.120;2023-08-30T07:24:55;99225.81;;;19.41;100.00
71567;BME280;59403;47.456;19.120;2023-08-30T07:27:22;99222.66;;;19.44;100.00
71567;BME280;59403;47.456;19.120;2023-08-30T07:29:49;99229.56;;;19.40;100.00
71567;BME280;59403;47.456;19.120;2023-08-30T07:32:17;99222.22;;;19.36;100.00
71567;BME280;59403;47.456;19.120;2023-08-30T07:34:44;99227.94;;;19.39;100.00
71567;BME280;59403;47.456;19.120;2023-08-30T07:37:18;99239.81;;;19.15;100.00
71567;BME280;59403;47.456;19.120;2023-08-30T07:39:46;99239.97;;;19.37;100.00
71567;BME280;59403;47.456;19.120;2023-08-30T07:42:13;99246.00;;;19.44;100.00
71567;BME280;59403;47.456;19.120;2023-08-30T07:44:40;99252.63;;;19.24;100.00
71567;BME280;59403;47.456;19.120;2023-08-30T07:47:07;99248.63;;;19.27;100.00
71567;BME280;59403;47.456;19.120;2023-08-30T07:49:35;99244.53;;;19.36;100.00
71567;BME280;59403;47.456;19.120;2023-08-30T07:52:02;99241.47;;;19.61;100.00
71567;BME280;59403;47.456;19.120;2023-08-30T07:54:30;99243.28;;;19.72;100.00
71567;BME280;59403;47.456;19.120;2023-08-30T07:56:57;99242.94;;;19.85;100.00
71567;BME280;59403;47.456;19.120;2023-08-30T07:59:24;99252.31;;;19.82;100.00
71567;BME280;59403;47.456;19.120;2023-08-30T08:01:51;99257.69;;;19.99;100.00
71567;BME280;59403;47.456;19.120;2023-08-30T08:04:18;99248.53;;;20.00;100.00
71567;BME280;59403;47.456;19.120;2023-08-30T08:06:46;99252.00;;;20.12;100.00
71567;BME280;59403;47.456;19.120;2023-08-30T08:09:13;99258.25;;;19.84;100.00
71567;BME280;59403;47.456;19.120;2023-08-30T08:11:40;99259.78;;;19.97;100.00
71567;BME280;59403;47.456;19.120;2023-08-30T08:14:09;99255.56;;;20.01;100.00
71567;BME280;59403;47.456;19.120;2023-08-30T08:16:37;99264.34;;;20.13;100.00
71567;BME280;59403;47.456;19.120;2023-08-30T08:19:04;99266.38;;;20.39;100.00
71567;BME280;59403;47.456;19.120;2023-08-30T08:21:31;99257.47;;;20.55;99.17
71567;BME280;59403;47.456;19.120;2023-08-30T08:23:59;99259.41;;;20.60;98.88
71567;BME280;59403;47.456;19.120;2023-08-30T08:26:27;99260.47;;;20.59;99.45
71567;BME280;59403;47.456;19.120;2023-08-30T08:28:54;99265.06;;;20.42;99.68
71567;BME280;59403;47.456;19.120;2023-08-30T08:31:21;99265.25;;;20.35;99.65
71567;BME280;59403;47.456;19.120;2023-08-30T08:33:51;99260.50;;;20.42;100.00
71567;BME280;59403;47.456;19.120;2023-08-30T08:36:19;99253.31;;;20.48;98.80
71567;BME280;59403;47.456;19.120;2023-08-30T08:38:46;99266.53;;;20.49;98.46
71567;BME280;59403;47.456;19.120;2023-08-30T08:41:15;99273.41;;;20.23;95.91
71567;BME280;59403;47.456;19.120;2023-08-30T08:43:43;99268.50;;;20.37;97.11
71567;BME280;59403;47.456;19.120;2023-08-30T08:46:13;99261.72;;;20.51;97.93
71567;BME280;59403;47.456;19.120;2023-08-30T08:48:43;99266.81;;;20.69;97.58
71567;BME280;59403;47.456;19.120;2023-08-30T08:51:12;99267.78;;;20.63;97.19
71567;BME280;59403;47.456;19.120;2023-08-30T08:53:39;99266.84;;;20.53;97.80
71567;BME280;59403;47.456;19.120;2023-08-30T08:56:07;99269.22;;;20.49;98.23
71567;BME280;59403;47.456;19.120;2023-08-30T08:58:36;99269.19;;;20.66;98.96
71567;BME280;59403;47.456;19.120;2023-08-30T09:01:04;99272.84;;;20.60;97.10
71567;BME280;59403;47.456;19.120;2023-08-30T09:03:33;99282.78;;;20.59;97.01
71567;BME280;59403;47.456;19.120;2023-08-30T09:06:01;99273.38;;;20.57;97.86
71567;BME280;59403;47.456;19.120;2023-08-30T09:08:27;99283.75;;;20.70;97.51
71567;BME280;59403;47.456;19.120;2023-08-30T09:10:54;99285.22;;;20.61;99.96
71567;BME280;59403;47.456;19.120;2023-08-30T09:13:21;99285.06;;;20.67;99.31
71567;BME280;59403;47.456;19.120;2023-08-30T09:15:49;99293.16;;;20.67;100.00
71567;BME280;59403;47.456;19.120;2023-08-30T09:18:16;99295.22;;;20.82;99.97
71567;BME280;59403;47.456;19.120;2023-08-30T09:20:44;99292.19;;;20.78;99.36
71567;BME280;59403;47.456;19.120;2023-08-30T09:23:17;99284.44;;;20.60;98.95
71567;BME280;59403;47.456;19.120;2023-08-30T09:25:45;99291.44;;;20.61;99.38
71567;BME280;59403;47.456;19.120;2023-08-30T09:28:12;99288.88;;;20.50;97.70
71567;BME280;59403;47.456;19.120;2023-08-30T09:30:39;99290.72;;;20.66;99.08
71567;BME280;59403;47.456;19.120;2023-08-30T09:33:08;99293.94;;;20.68;100.00
71567;BME280;59403;47.456;19.120;2023-08-30T09:35:43;99304.47;;;20.69;99.77
71567;BME280;59403;47.456;19.120;2023-08-30T09:38:16;99293.94;;;20.68;97.06
71567;BME280;59403;47.456;19.120;2023-08-30T09:40:44;99306.59;;;20.67;98.21
71567;BME280;59403;47.456;19.120;2023-08-30T09:43:11;99309.53;;;20.66;97.86
71567;BME280;59403;47.456;19.120;2023-08-30T09:45:38;99305.31;;;20.53;99.75
71567;BME280;59403;47.456;19.120;2023-08-30T09:48:08;99309.22;;;20.62;100.00
71567;BME280;59403;47.456;19.120;2023-08-30T09:50:35;99310.09;;;20.68;99.42
71567;BME280;59403;47.456;19.120;2023-08-30T09:53:07;99315.16;;;20.64;99.34
71567;BME280;59403;47.456;19.120;2023-08-30T09:55:35;99303.28;;;20.82;99.55
71567;BME280;59403;47.456;19.120;2023-08-30T09:58:02;99314.87;;;20.82;99.16
71567;BME280;59403;47.456;19.120;2023-08-30T10:00:30;99321.09;;;20.66;97.37
71567;BME280;59403;47.456;19.120;2023-08-30T10:02:58;99318.06;;;20.79;98.05
71567;BME280;59403;47.456;19.120;2023-08-30T10:05:26;99312.19;;;20.82;97.17
71567;BME280;59403;47.456;19.120;2023-08-30T10:07:54;99312.72;;;21.01;96.44
71567;BME280;59403;47.456;19.120;2023-08-30T10:10:21;99306.13;;;21.13;95.36
71567;BME280;59403;47.456;19.120;2023-08-30T10:12:49;99316.50;;;21.48;93.79
71567;BME280;59403;47.456;19.120;2023-08-30T10:15:16;99314.16;;;21.57;93.89
71567;BME280;59403;47.456;19.120;2023-08-30T10:17:45;99314.78;;;21.37;92.42
71567;BME280;59403;47.456;19.120;2023-08-30T10:20:12;99319.03;;;22.13;91.29
71567;BME280;59403;47.456;19.120;2023-08-30T10:22:43;99321.97;;;21.80;91.43
71567;BME280;59403;47.456;19.120;2023-08-30T10:25:11;99321.28;;;21.68;92.72
71567;BME280;59403;47.456;19.120;2023-08-30T10:27:45;99324.03;;;21.73;92.18
71567;BME280;59403;47.456;19.120;2023-08-30T10:30:13;99330.53;;;21.77;92.15
71567;BME280;59403;47.456;19.120;2023-08-30T10:32:42;99321.53;;;21.39;92.81
71567;BME280;59403;47.456;19.120;2023-08-30T10:35:11;99315.44;;;21.49;91.25
71567;BME280;59403;47.456;19.120;2023-08-30T10:37:38;99314.37;;;21.77;89.74
71567;BME280;59403;47.456;19.120;2023-08-30T10:40:08;99319.09;;;21.65;89.88
71567;BME280;59403;47.456;19.120;2023-08-30T10:42:35;99319.72;;;21.72;89.50
71567;BME280;59403;47.456;19.120;2023-08-30T10:45:04;99318.38;;;21.48;91.03
71567;BME280;59403;47.456;19.120;2023-08-30T10:47:33;99319.22;;;21.26;90.05
71567;BME280;59403;47.456;19.120;2023-08-30T10:50:06;99332.41;;;21.50;90.87
71567;BME280;59403;47.456;19.120;2023-08-30T10:52:33;99316.59;;;21.58;90.96
71567;BME280;59403;47.456;19.120;2023-08-30T10:55:09;99320.81;;;21.76;90.94
71567;BME280;59403;47.456;19.120;2023-08-30T10:57:37;99324.69;;;22.11;89.32
71567;BME280;59403;47.456;19.120;2023-08-30T11:00:06;99319.31;;;22.16;89.01
71567;BME280;59403;47.456;19.120;2023-08-30T11:02:35;99320.81;;;22.02;87.90
71567;BME280;59403;47.456;19.120;2023-08-30T11:05:03;99314.37;;;22.45;87.61
71567;BME280;59403;47.456;19.120;2023-08-30T11:07:32;99312.59;;;22.56;86.52
71567;BME280;59403;47.456;19.120;2023-08-30T11:09:59;99313.53;;;22.76;87.91
71567;BME280;59403;47.456;19.120;2023-08-30T11:12:27;99315.56;;;22.22;87.77
71567;BME280;59403;47.456;19.120;2023-08-30T11:14:55;99314.16;;;22.10;86.78
71567;BME280;59403;47.456;19.120;2023-08-30T11:17:22;99314.31;;;21.72;88.30
71567;BME280;59403;47.456;19.120;2023-08-30T11:19:50;99309.78;;;21.51;87.58
71567;BME280;59403;47.456;19.120;2023-08-30T11:22:17;99306.16;;;21.67;88.37
71567;BME280;59403;47.456;19.120;2023-08-30T11:24:47;99304.53;;;21.66;87.75
71567;BME280;59403;47.456;19.120;2023-08-30T11:27:17;99303.19;;;21.63;90.18
71567;BME280;59403;47.456;19.120;2023-08-30T11:29:47;99307.91;;;21.51;89.08
71567;BME280;59403;47.456;19.120;2023-08-30T11:32:13;99311.62;;;21.72;90.45
71567;BME280;59403;47.456;19.120;2023-08-30T11:34:40;99310.19;;;21.86;88.85
71567;BME280;59403;47.456;19.120;2023-08-30T11:37:07;99309.16;;;21.70;87.75
71567;BME280;59403;47.456;19.120;2023-08-30T11:39:34;99316.09;;;21.34;89.23
71567;BME280;59403;47.456;19.120;2023-08-30T11:42:03;99315.03;;;21.62;88.32
71567;BME280;59403;47.456;19.120;2023-08-30T11:44:31;99313.91;;;21.58;86.98
71567;BME280;59403;47.456;19.120;2023-08-30T11:47:00;99312.59;;;21.61;87.56
71567;BME280;59403;47.456;19.120;2023-08-30T11:49:28;99310.50;;;21.68;88.80
71567;BME280;59403;47.456;19.120;2023-08-30T11:51:55;99309.16;;;22.28;85.93
71567;BME280;59403;47.456;19.120;2023-08-30T11:54:24;99291.63;;;22.31;86.77
71567;BME280;59403;47.456;19.120;2023-08-30T11:56:51;99301.91;;;21.97;86.72
71567;BME280;59403;47.456;19.120;2023-08-30T11:59:19;99299.16;;;21.92;87.06
71567;BME280;59403;47.456;19.120;2023-08-30T12:01:46;99300.16;;;21.81;87.14
71567;BME280;59403;47.456;19.120;2023-08-30T12:04:14;99294.00;;;21.86;87.40
71567;BME280;59403;47.456;19.120;2023-08-30T12:06:43;99303.09;;;21.80;87.22
71567;BME280;59403;47.456;19.120;2023-08-30T12:09:12;99303.91;;;21.80;86.97
71567;BME280;59403;47.456;19.120;2023-08-30T12:11:39;99302.19;;;21.74;86.95
71567;BME280;59403;47.456;19.120;2023-08-30T12:14:05;99292.81;;;21.77;87.15
71567;BME280;59403;47.456;19.120;2023-08-30T12:16:32;99285.47;;;21.99;86.43
71567;BME280;59403;47.456;19.120;2023-08-30T12:19:07;99289.84;;;22.05;86.69
71567;BME280;59403;47.456;19.120;2023-08-30T12:21:41;99289.53;;;22.01;87.08
71567;BME280;59403;47.456;19.120;2023-08-30T12:24:08;99294.00;;;21.86;86.16
71567;BME280;59403;47.456;19.120;2023-08-30T12:26:36;99292.81;;;21.77;86.43
71567;BME280;59403;47.456;19.120;2023-08-30T12:29:04;99287.22;;;21.83;87.20
71567;BME280;59403;47.456;19.120;2023-08-30T12:31:31;99287.22;;;21.83;87.79
71567;BME280;59403;47.456;19.120;2023-08-30T12:33:58;99288.47;;;22.02;89.09
71567;BME280;59403;47.456;19.120;2023-08-30T12:36:25;99291.16;;;22.02;88.53
71567;BME280;59403;47.456;19.120;2023-08-30T12:38:53;99293.22;;;21.90;87.46
71567;BME280;59403;47.456;19.120;2023-08-30T12:41:20;99280.75;;;21.84;88.59
71567;BME280;59403;47.456;19.120;2023-08-30T12:43:48;99284.84;;;21.87;89.12
71567;BME280;59403;47.456;19.120;2023-08-30T12:46:15;99280.00;;;21.62;88.62
71567;BME280;59403;47.456;19.120;2023-08-30T12:48:42;99273.25;;;21.60;89.45
71567;BME280;59403;47.456;19.120;2023-08-30T12:51:09;99268.00;;;21.48;88.83